Time;durP1;ratioP1;P1;durP2;ratioP2;P2;SDS_P1;SDS_P2;PMS_P1;PMS_P2;Temp;Humidity;BMP_temperature;BMP_pressure;BME280_temperature;BME280_humidity;BME280_pressure;Samples;Min_cycle;Max_cycle;Signal;HPM_P1;HPM_P2
2021/08/08 00:01:43;;;;;;;6.85;2.15;;;25.50;96.70;;;;;;5062323;28;20110;-70
2021/08/08 00:04:11;;;;;;;3.80;1.75;;;25.60;96.70;;;;;;5083583;28;20040;-70
2021/08/08 00:06:40;;;;;;;3.53;1.73;;;25.70;96.70;;;;;;5088097;28;20844;-70
2021/08/08 00:09:10;;;;;;;3.22;1.80;;;25.70;96.70;;;;;;5084760;28;20044;-70
2021/08/08 00:11:39;;;;;;;3.65;1.65;;;25.50;96.70;;;;;;5076159;28;20087;-70
2021/08/08 00:14:07;;;;;;;3.83;1.70;;;25.50;96.70;;;;;;5082171;28;20036;-70
2021/08/08 00:16:36;;;;;;;3.50;1.83;;;25.50;96.70;;;;;;5083892;28;20075;-70
2021/08/08 00:19:04;;;;;;;4.55;2.10;;;25.60;96.70;;;;;;5083712;28;20135;-70
2021/08/08 00:21:33;;;;;;;5.03;1.70;;;25.60;96.70;;;;;;5080466;28;20113;-70
2021/08/08 00:24:01;;;;;;;4.32;1.65;;;25.70;96.70;;;;;;5080473;28;20040;-70
2021/08/08 00:26:32;;;;;;;4.90;1.67;;;25.70;96.70;;;;;;5079315;28;20048;-70
2021/08/08 00:29:01;;;;;;;4.97;1.90;;;25.70;96.70;;;;;;5059901;28;20051;-70
2021/08/08 00:31:29;;;;;;;2.92;1.65;;;25.70;96.70;;;;;;5085217;28;20040;-70
2021/08/08 00:33:59;;;;;;;4.25;1.80;;;25.70;96.70;;;;;;5086035;28;20113;-70
2021/08/08 00:36:29;;;;;;;2.75;1.60;;;25.60;96.70;;;;;;5078040;28;20048;-70
2021/08/08 00:39:00;;;;;;;3.58;1.67;;;25.60;96.70;;;;;;5082636;28;20052;-70
2021/08/08 00:41:31;;;;;;;2.00;1.25;;;25.70;96.70;;;;;;5066803;28;20063;-70
2021/08/08 00:44:01;;;;;;;5.10;1.77;;;25.60;96.70;;;;;;5083200;28;20097;-71
2021/08/08 00:46:30;;;;;;;4.60;1.95;;;25.60;96.70;;;;;;5076770;28;20699;-70
2021/08/08 00:49:00;;;;;;;5.93;1.98;;;25.50;96.70;;;;;;5080489;28;20509;-70
2021/08/08 00:51:32;;;;;;;5.53;2.35;;;25.50;96.70;;;;;;5082931;28;20048;-70
2021/08/08 00:54:01;;;;;;;3.92;1.52;;;25.40;96.70;;;;;;5079312;28;20043;-70
2021/08/08 00:56:35;;;;;;;3.58;1.73;;;25.50;96.70;;;;;;5059728;28;20490;-70
2021/08/08 00:59:05;;;;;;;5.95;2.25;;;25.60;96.70;;;;;;5081059;28;20456;-70
2021/08/08 01:01:41;;;;;;;3.88;2.03;;;25.60;96.70;;;;;;5081461;28;20040;-70
2021/08/08 01:04:17;;;;;;;3.55;1.75;;;25.60;96.70;;;;;;5078436;28;20086;-70
2021/08/08 01:06:59;;;;;;;3.53;1.60;;;25.60;96.70;;;;;;5081337;28;20502;-70
2021/08/08 01:09:34;;;;;;;4.70;1.75;;;25.70;96.70;;;;;;5081824;28;20036;-70
2021/08/08 01:12:05;;;;;;;3.33;2.08;;;25.60;96.70;;;;;;5081767;28;20047;-70
2021/08/08 01:14:40;;;;;;;5.35;2.13;;;25.60;96.70;;;;;;5062919;28;20040;-70
2021/08/08 01:17:11;;;;;;;3.75;1.83;;;25.60;96.70;;;;;;5075872;28;20229;-70
2021/08/08 01:19:47;;;;;;;4.13;1.80;;;25.70;96.70;;;;;;5076934;28;20055;-70
2021/08/08 01:22:18;;;;;;;2.35;1.52;;;25.60;96.70;;;;;;5080041;28;20052;-70
2021/08/08 01:24:49;;;;;;;4.45;1.50;;;25.60;96.70;;;;;;5078878;28;20090;-70
2021/08/08 01:27:19;;;;;;;3.70;1.80;;;25.70;96.70;;;;;;5065285;28;20472;-70
2021/08/08 01:29:48;;;;;;;2.80;1.73;;;25.70;96.70;;;;;;5081115;28;20032;-70
2021/08/08 01:32:16;;;;;;;3.05;1.75;;;25.60;96.70;;;;;;5081584;28;20076;-70
2021/08/08 01:34:46;;;;;;;3.97;1.65;;;25.70;96.70;;;;;;5081606;28;20157;-70
2021/08/08 01:37:20;;;;;;;4.55;1.80;;;25.70;96.70;;;;;;5063962;28;20036;-70
2021/08/08 01:40:19;;;;;;;2.88;1.65;;;25.70;96.70;;;;;;5075428;28;20032;-70
2021/08/08 01:42:53;;;;;;;3.72;1.60;;;25.70;96.70;;;;;;5076729;28;20036;-70
2021/08/08 01:45:22;;;;;;;3.58;1.58;;;25.60;96.70;;;;;;5082715;28;20150;-70
2021/08/08 01:47:59;;;;;;;6.00;1.80;;;25.50;96.70;;;;;;5076172;28;20040;-70
2021/08/08 01:50:32;;;;;;;3.25;1.63;;;25.60;96.70;;;;;;5079504;28;20461;-70
2021/08/08 01:53:06;;;;;;;4.70;1.90;;;25.60;96.70;;;;;;5081885;28;20054;-70
2021/08/08 01:55:37;;;;;;;4.63;1.67;;;25.60;96.70;;;;;;5079374;28;20044;-70
2021/08/08 01:58:07;;;;;;;5.03;1.70;;;25.60;96.70;;;;;;5065236;28;20048;-70
2021/08/08 02:00:38;;;;;;;2.63;1.50;;;25.70;96.70;;;;;;5063178;28;20074;-70
2021/08/08 02:03:16;;;;;;;4.07;2.10;;;25.70;96.70;;;;;;5078026;28;20122;-70
2021/08/08 02:05:53;;;;;;;4.60;2.05;;;25.70;96.70;;;;;;5081693;28;20387;-70
2021/08/08 02:08:22;;;;;;;3.67;2.17;;;25.60;96.70;;;;;;5080830;28;20048;-70
2021/08/08 02:11:10;;;;;;;3.30;1.85;;;25.60;96.70;;;;;;5080182;28;20055;-70
2021/08/08 02:13:49;;;;;;;6.55;2.05;;;25.60;96.70;;;;;;5077808;28;20040;-70
2021/08/08 02:16:19;;;;;;;6.13;2.00;;;25.50;96.70;;;;;;5081201;28;20444;-70
2021/08/08 02:18:47;;;;;;;5.40;1.60;;;25.60;96.70;;;;;;5081209;28;20052;-70
2021/08/08 02:21:21;;;;;;;5.80;2.25;;;25.60;96.70;;;;;;5085446;28;20097;-70
2021/08/08 02:23:53;;;;;;;8.07;2.33;;;25.40;96.70;;;;;;5080437;28;20036;-70
2021/08/08 02:26:26;;;;;;;8.75;2.53;;;25.40;96.70;;;;;;5068048;28;20050;-70
2021/08/08 02:28:59;;;;;;;6.60;2.00;;;25.20;96.70;;;;;;5097027;28;20067;-70
2021/08/08 02:31:35;;;;;;;3.17;1.60;;;25.30;96.70;;;;;;5097138;27;20043;-70
2021/08/08 02:34:07;;;;;;;6.60;1.73;;;25.40;96.70;;;;;;5082088;28;20052;-70
2021/08/08 02:36:37;;;;;;;2.33;1.83;;;25.40;96.70;;;;;;5080884;28;20414;-70
2021/08/08 02:39:06;;;;;;;4.88;1.92;;;25.40;96.70;;;;;;5097439;28;20653;-70
2021/08/08 02:41:35;;;;;;;4.97;1.83;;;25.40;96.70;;;;;;5077157;28;20052;-70
2021/08/08 02:44:05;;;;;;;3.35;1.50;;;25.40;96.70;;;;;;5075728;28;20044;-70
2021/08/08 02:46:34;;;;;;;4.35;1.65;;;25.30;96.70;;;;;;5061854;28;20131;-70
2021/08/08 02:52:53;;;;;;;3.42;1.55;;;25.30;96.70;;;;;;5081300;28;20106;-68
2021/08/08 02:55:25;;;;;;;4.43;1.77;;;25.30;96.70;;;;;;5077859;28;20075;-68
2021/08/08 02:58:00;;;;;;;6.03;1.80;;;25.30;96.70;;;;;;5064100;28;20223;-68
2021/08/08 03:00:31;;;;;;;5.03;1.70;;;25.30;96.70;;;;;;5079712;28;20394;-68
2021/08/08 03:03:00;;;;;;;3.50;1.70;;;25.30;96.70;;;;;;5072336;28;20040;-68
2021/08/08 03:05:32;;;;;;;3.15;1.50;;;25.20;96.70;;;;;;5077326;28;20139;-69
2021/08/08 03:08:00;;;;;;;4.93;1.80;;;25.20;96.70;;;;;;5063455;28;20087;-68
2021/08/08 03:10:30;;;;;;;3.70;1.50;;;25.30;96.70;;;;;;5084971;28;20394;-68
2021/08/08 03:16:39;;;;;;;2.47;1.33;;;25.30;96.70;;;;;;5079861;28;20584;-68
2021/08/08 03:19:07;;;;;;;5.05;1.80;;;25.30;96.70;;;;;;5062292;28;20452;-68
2021/08/08 03:21:35;;;;;;;4.68;1.70;;;25.30;96.70;;;;;;5081558;28;20043;-69
2021/08/08 03:24:04;;;;;;;2.58;1.52;;;25.20;96.70;;;;;;5077356;28;20497;-67
2021/08/08 03:26:33;;;;;;;2.97;1.50;;;25.20;96.70;;;;;;5080077;28;20067;-68
2021/08/08 03:29:02;;;;;;;3.67;1.83;;;25.20;96.70;;;;;;5077834;28;20532;-68
2021/08/08 03:31:32;;;;;;;3.70;1.58;;;25.20;96.70;;;;;;5078523;28;20044;-67
2021/08/08 03:34:13;;;;;;;5.10;1.85;;;25.20;96.70;;;;;;5080494;28;20117;-68
2021/08/08 03:36:55;;;;;;;7.40;2.53;;;25.10;96.70;;;;;;5080325;28;20036;-70
2021/08/08 03:39:35;;;;;;;7.20;3.42;;;25.00;96.70;;;;;;5076573;28;20437;-68
2021/08/08 03:42:10;;;;;;;9.45;4.03;;;24.90;96.70;;;;;;5078669;28;20068;-68
2021/08/08 03:44:41;;;;;;;14.23;7.32;;;24.90;96.70;;;;;;5073897;28;20496;-67
2021/08/08 03:47:10;;;;;;;15.98;8.50;;;24.90;96.70;;;;;;5078914;28;20097;-68
2021/08/08 03:49:42;;;;;;;20.25;9.02;;;24.90;96.70;;;;;;5064830;28;20044;-68
2021/08/08 03:52:12;;;;;;;15.02;8.20;;;24.90;96.70;;;;;;5078035;28;20541;-68
2021/08/08 03:54:40;;;;;;;17.77;7.65;;;24.80;96.70;;;;;;5081165;28;20040;-68
2021/08/08 03:57:09;;;;;;;15.93;7.45;;;24.80;96.70;;;;;;5076125;28;20051;-68
2021/08/08 03:59:38;;;;;;;17.92;6.63;;;24.80;96.70;;;;;;5078910;28;20527;-68
2021/08/08 04:02:08;;;;;;;12.02;5.65;;;24.80;96.70;;;;;;5078025;28;20041;-68
2021/08/08 04:04:37;;;;;;;8.50;4.82;;;24.80;96.70;;;;;;5084146;28;20175;-68
2021/08/08 04:07:07;;;;;;;9.32;4.50;;;24.80;96.70;;;;;;5078551;28;20044;-68
2021/08/08 04:09:35;;;;;;;6.57;3.95;;;24.80;96.70;;;;;;5083334;28;20044;-68
2021/08/08 04:12:06;;;;;;;7.22;3.40;;;24.90;96.70;;;;;;5061329;28;20063;-68
2021/08/08 04:14:35;;;;;;;7.13;3.30;;;24.90;96.70;;;;;;5065226;28;20502;-68
2021/08/08 04:17:05;;;;;;;6.15;3.45;;;24.90;96.70;;;;;;5063016;28;20046;-67
2021/08/08 04:19:34;;;;;;;6.65;3.08;;;24.90;96.70;;;;;;5064973;28;20048;-68
2021/08/08 04:22:58;;;;;;;7.50;3.47;;;24.80;96.70;;;;;;5078556;28;20405;-68
2021/08/08 04:25:28;;;;;;;6.95;2.92;;;24.70;96.70;;;;;;5077555;28;20055;-68
2021/08/08 04:27:56;;;;;;;6.22;3.20;;;24.70;96.70;;;;;;5075118;28;20147;-67
2021/08/08 04:30:25;;;;;;;4.85;2.40;;;24.80;96.70;;;;;;5078205;28;20134;-68
2021/08/08 04:32:53;;;;;;;6.70;2.80;;;24.80;96.70;;;;;;5077875;28;20032;-68
2021/08/08 04:35:21;;;;;;;4.18;2.75;;;24.90;96.70;;;;;;5076029;28;20040;-69
2021/08/08 04:37:50;;;;;;;5.32;2.90;;;24.90;96.70;;;;;;5083958;28;20184;-68
2021/08/08 04:40:23;;;;;;;5.53;2.15;;;24.90;96.70;;;;;;5079157;28;20143;-68
2021/08/08 04:42:53;;;;;;;6.28;2.40;;;24.90;96.70;;;;;;5084534;28;20206;-68
2021/08/08 04:45:22;;;;;;;7.32;3.13;;;24.90;96.70;;;;;;5081908;28;20040;-68
2021/08/08 04:47:50;;;;;;;6.40;3.00;;;24.90;96.70;;;;;;5082812;28;20064;-68
2021/08/08 04:50:20;;;;;;;5.03;2.40;;;24.80;96.70;;;;;;5079778;28;20521;-68
2021/08/08 04:52:48;;;;;;;4.93;2.60;;;24.90;96.70;;;;;;5084164;28;20043;-68
2021/08/08 04:55:17;;;;;;;9.27;2.65;;;24.90;96.70;;;;;;5084381;28;20044;-68
2021/08/08 04:57:45;;;;;;;8.25;2.55;;;24.90;96.70;;;;;;5080969;28;20048;-68
2021/08/08 05:00:20;;;;;;;3.85;2.00;;;24.80;96.70;;;;;;5083901;28;20059;-68
2021/08/08 05:02:49;;;;;;;6.53;2.60;;;24.70;96.70;;;;;;5082742;28;20071;-68
2021/08/08 05:05:18;;;;;;;4.25;2.30;;;24.70;96.70;;;;;;5065265;28;20079;-68
2021/08/08 05:07:48;;;;;;;3.08;1.90;;;24.90;96.70;;;;;;5084609;28;20040;-68
2021/08/08 05:10:18;;;;;;;4.45;2.33;;;25.00;96.70;;;;;;5082233;28;20032;-68
2021/08/08 05:12:51;;;;;;;7.03;2.40;;;25.10;96.70;;;;;;5083037;28;20036;-67
2021/08/08 05:15:21;;;;;;;6.55;2.17;;;25.10;96.70;;;;;;5081505;28;20489;-68
2021/08/08 05:17:56;;;;;;;5.07;2.00;;;25.10;96.70;;;;;;5080798;28;20243;-67
2021/08/08 05:20:24;;;;;;;4.40;2.10;;;25.10;96.70;;;;;;5060168;28;20051;-68
2021/08/08 05:22:53;;;;;;;4.72;2.10;;;25.00;96.70;;;;;;5065903;28;20047;-68
2021/08/08 05:25:21;;;;;;;4.80;2.33;;;25.10;96.70;;;;;;5079662;28;20044;-68
2021/08/08 05:27:50;;;;;;;4.63;2.30;;;25.20;96.70;;;;;;5080998;28;20054;-68
2021/08/08 05:30:20;;;;;;;6.35;1.92;;;25.20;96.70;;;;;;5084018;28;20046;-68
2021/08/08 05:32:48;;;;;;;4.47;1.92;;;25.30;96.70;;;;;;5081942;28;20382;-68
2021/08/08 05:35:16;;;;;;;5.18;2.08;;;25.30;96.70;;;;;;5081877;28;20048;-68
2021/08/08 05:37:45;;;;;;;4.30;1.88;;;25.30;96.70;;;;;;5079380;28;20489;-68
2021/08/08 05:40:14;;;;;;;2.63;1.50;;;25.30;96.70;;;;;;5083435;28;20048;-68
2021/08/08 05:42:48;;;;;;;5.70;2.10;;;25.30;96.70;;;;;;5080344;28;20039;-68
2021/08/08 05:45:21;;;;;;;3.78;1.58;;;25.20;96.70;;;;;;5081653;28;20598;-68
2021/08/08 05:47:51;;;;;;;5.82;1.85;;;25.20;96.70;;;;;;5078031;28;20055;-68
2021/08/08 05:50:24;;;;;;;4.25;1.40;;;25.20;96.70;;;;;;5073948;28;20072;-68
2021/08/08 05:52:53;;;;;;;3.70;1.83;;;25.30;96.70;;;;;;5080985;28;20442;-69
2021/08/08 05:55:23;;;;;;;4.25;2.00;;;25.20;96.70;;;;;;5085573;28;20052;-69
2021/08/08 05:57:51;;;;;;;3.42;1.77;;;25.20;96.70;;;;;;5077224;28;20044;-68
2021/08/08 06:00:23;;;;;;;5.47;2.28;;;25.30;96.70;;;;;;5082516;28;20040;-68
2021/08/08 06:02:57;;;;;;;5.90;2.47;;;25.40;96.70;;;;;;5081785;28;20399;-68
2021/08/08 06:05:29;;;;;;;5.85;2.60;;;25.50;96.70;;;;;;5082511;28;20048;-68
2021/08/08 06:07:59;;;;;;;3.58;2.03;;;25.50;96.70;;;;;;5082079;28;20750;-68
2021/08/08 06:10:28;;;;;;;4.95;2.80;;;25.60;96.70;;;;;;5078722;28;20771;-68
2021/08/08 06:12:57;;;;;;;4.47;2.53;;;25.60;96.70;;;;;;5084877;28;20058;-68
2021/08/08 06:15:27;;;;;;;6.35;3.00;;;25.70;96.70;;;;;;5080524;28;20473;-68
2021/08/08 06:17:56;;;;;;;6.93;3.17;;;25.80;96.70;;;;;;5079762;28;20501;-69
2021/08/08 06:20:25;;;;;;;6.32;3.25;;;25.80;96.70;;;;;;5079520;28;20086;-68
2021/08/08 06:22:55;;;;;;;7.78;3.00;;;25.90;96.70;;;;;;5077476;28;20032;-69
2021/08/08 06:25:23;;;;;;;6.38;2.72;;;25.90;96.70;;;;;;5077165;28;20060;-68
2021/08/08 06:27:51;;;;;;;4.43;3.00;;;25.90;96.70;;;;;;5076657;28;20161;-68
2021/08/08 06:30:20;;;;;;;5.45;2.78;;;25.90;96.70;;;;;;5079150;28;20110;-68
2021/08/08 06:32:51;;;;;;;3.58;2.55;;;26.00;96.70;;;;;;5068947;28;20035;-68
2021/08/08 06:35:21;;;;;;;5.82;2.40;;;26.10;96.70;;;;;;5080710;28;20036;-69
2021/08/08 06:37:50;;;;;;;7.45;2.47;;;26.20;96.70;;;;;;5083447;28;20048;-68
2021/08/08 06:40:19;;;;;;;6.20;2.58;;;26.30;96.70;;;;;;5079689;28;20097;-68
2021/08/08 06:42:48;;;;;;;5.07;2.78;;;26.40;96.70;;;;;;5076844;28;20135;-68
2021/08/08 06:45:18;;;;;;;7.57;3.00;;;26.50;96.70;;;;;;5078752;28;20120;-68
2021/08/08 06:47:47;;;;;;;6.75;2.53;;;26.50;96.70;;;;;;5079978;28;20133;-68
2021/08/08 06:50:17;;;;;;;3.83;2.75;;;26.50;96.70;;;;;;5079647;28;20163;-68
2021/08/08 06:52:46;;;;;;;7.03;3.40;;;26.60;96.70;;;;;;5081631;28;20047;-68
2021/08/08 06:55:14;;;;;;;6.88;2.90;;;26.70;96.70;;;;;;5079904;28;20501;-68
2021/08/08 06:57:42;;;;;;;7.63;3.28;;;26.70;96.70;;;;;;5082617;28;20051;-68
2021/08/08 07:00:15;;;;;;;3.63;1.98;;;26.80;96.70;;;;;;5084018;28;20482;-68
2021/08/08 07:02:47;;;;;;;5.20;2.10;;;26.90;96.70;;;;;;5079568;28;20041;-68
2021/08/08 07:05:15;;;;;;;6.45;3.13;;;27.00;96.70;;;;;;5075862;28;20051;-69
2021/08/08 07:07:46;;;;;;;5.07;2.33;;;27.10;96.70;;;;;;5083676;28;20040;-68
2021/08/08 07:10:15;;;;;;;4.57;2.42;;;27.10;96.70;;;;;;5081447;28;20051;-68
2021/08/08 07:12:43;;;;;;;5.57;2.58;;;27.30;96.70;;;;;;5082557;28;20040;-69
2021/08/08 07:15:13;;;;;;;4.38;2.58;;;27.30;96.70;;;;;;5082187;28;20077;-68
2021/08/08 07:17:41;;;;;;;6.20;2.10;;;27.30;96.70;;;;;;5085529;28;20152;-68
2021/08/08 07:20:11;;;;;;;10.32;2.63;;;27.40;96.70;;;;;;5055881;28;20049;-68
2021/08/08 07:22:40;;;;;;;3.72;2.38;;;27.50;96.70;;;;;;5078114;28;20055;-68
2021/08/08 07:25:10;;;;;;;8.20;2.53;;;27.50;96.70;;;;;;5081405;28;20510;-68
2021/08/08 07:27:38;;;;;;;5.35;2.47;;;27.50;96.70;;;;;;5079546;28;20085;-67
2021/08/08 07:30:08;;;;;;;7.00;2.30;;;27.40;96.70;;;;;;5075605;28;20045;-68
2021/08/08 07:32:38;;;;;;;6.68;2.50;;;27.40;96.70;;;;;;5061458;28;20101;-68
2021/08/08 07:35:07;;;;;;;6.15;2.33;;;27.30;96.70;;;;;;5046094;28;20498;-69
2021/08/08 07:37:36;;;;;;;7.25;2.80;;;27.40;96.70;;;;;;5079137;28;20047;-70
2021/08/08 07:40:05;;;;;;;9.07;2.70;;;27.50;96.70;;;;;;5076409;28;20196;-70
2021/08/08 07:42:35;;;;;;;7.65;2.53;;;27.40;96.70;;;;;;5072420;28;20455;-69
2021/08/08 07:45:05;;;;;;;5.53;2.40;;;27.40;96.70;;;;;;5071681;28;20052;-70
2021/08/08 07:47:33;;;;;;;5.82;2.60;;;27.50;96.70;;;;;;5076539;28;20047;-71
2021/08/08 07:50:03;;;;;;;6.93;2.30;;;27.60;96.70;;;;;;5077458;28;20075;-71
2021/08/08 07:52:34;;;;;;;6.70;2.40;;;27.50;96.70;;;;;;5079224;28;20490;-71
2021/08/08 07:55:04;;;;;;;4.97;1.83;;;27.50;96.70;;;;;;5078047;28;20044;-71
2021/08/08 07:57:32;;;;;;;8.52;3.05;;;27.40;96.70;;;;;;5078894;28;20074;-71
2021/08/08 08:00:02;;;;;;;6.70;2.65;;;27.40;96.70;;;;;;5061841;28;20056;-70
2021/08/08 08:02:33;;;;;;;8.00;2.88;;;27.40;96.70;;;;;;5076679;28;20050;-71
2021/08/08 08:05:02;;;;;;;6.78;2.55;;;27.30;96.70;;;;;;5082202;28;20048;-70
2021/08/08 08:07:31;;;;;;;9.30;3.15;;;27.40;96.70;;;;;;5077743;28;20040;-71
2021/08/08 08:10:00;;;;;;;12.07;3.63;;;27.40;96.70;;;;;;5079553;28;20815;-69
2021/08/08 08:12:29;;;;;;;9.88;2.50;;;27.50;96.70;;;;;;5058708;28;20416;-71
2021/08/08 08:14:58;;;;;;;10.93;2.95;;;27.50;96.70;;;;;;5075728;28;20505;-70
2021/08/08 08:17:28;;;;;;;9.23;3.17;;;27.50;96.70;;;;;;5070010;28;20063;-71
2021/08/08 08:19:56;;;;;;;8.65;2.50;;;27.60;96.70;;;;;;5080926;28;20093;-70
2021/08/08 08:22:25;;;;;;;7.45;3.10;;;27.80;96.70;;;;;;5079968;28;20079;-70
2021/08/08 08:24:54;;;;;;;6.82;2.80;;;27.80;96.70;;;;;;5076612;28;20036;-71
2021/08/08 08:27:24;;;;;;;10.52;3.03;;;27.90;96.70;;;;;;5077599;28;20056;-72
2021/08/08 08:29:56;;;;;;;7.40;2.83;;;27.90;96.70;;;;;;5080472;28;20861;-71
2021/08/08 08:32:25;;;;;;;7.22;2.80;;;27.90;96.70;;;;;;5061867;28;20055;-68
2021/08/08 08:34:55;;;;;;;9.52;3.00;;;28.00;96.70;;;;;;5082051;28;20105;-70
2021/08/08 08:37:23;;;;;;;8.15;2.53;;;28.10;96.70;;;;;;5082830;28;20043;-70
2021/08/08 08:39:52;;;;;;;8.95;3.10;;;28.00;96.70;;;;;;5080673;28;20135;-70
2021/08/08 08:42:24;;;;;;;6.35;2.60;;;28.20;96.70;;;;;;5064530;28;20041;-69
2021/08/08 08:44:53;;;;;;;8.18;2.78;;;28.20;96.70;;;;;;5082039;28;20242;-68
2021/08/08 08:47:24;;;;;;;6.07;2.28;;;28.30;96.70;;;;;;5083983;28;20593;-68
2021/08/08 08:49:58;;;;;;;6.75;2.80;;;28.30;96.70;;;;;;5077102;28;20480;-69
2021/08/08 08:52:28;;;;;;;5.85;3.17;;;28.30;96.70;;;;;;5082886;28;20478;-68
2021/08/08 08:54:58;;;;;;;8.50;2.78;;;28.40;96.70;;;;;;5079419;28;20168;-69
2021/08/08 08:57:27;;;;;;;10.60;3.10;;;28.50;96.70;;;;;;5076763;28;20040;-69
2021/08/08 08:59:59;;;;;;;8.30;2.65;;;28.60;96.70;;;;;;5078647;28;20056;-69
2021/08/08 09:02:28;;;;;;;6.97;2.28;;;28.70;96.70;;;;;;5079101;28;20048;-69
2021/08/08 09:04:59;;;;;;;6.68;2.38;;;28.70;96.70;;;;;;5073653;28;20048;-69
2021/08/08 09:07:28;;;;;;;7.88;2.67;;;28.60;96.70;;;;;;5080150;28;20047;-69
2021/08/08 09:09:57;;;;;;;7.28;2.63;;;28.60;96.70;;;;;;5080234;28;20526;-68
2021/08/08 09:12:31;;;;;;;6.03;2.45;;;28.90;96.70;;;;;;5081752;28;20047;-69
2021/08/08 09:15:01;;;;;;;10.90;2.75;;;28.90;96.70;;;;;;5081689;28;20423;-69
2021/08/08 09:17:37;;;;;;;6.70;2.70;;;28.90;96.70;;;;;;5073570;28;20626;-69
2021/08/08 09:20:10;;;;;;;6.43;2.70;;;29.10;96.70;;;;;;5079296;28;20047;-69
2021/08/08 09:22:42;;;;;;;;;;;29.10;96.70;;;;;;5063478;28;20368;-69
2021/08/08 09:25:21;;;;;;;9.35;2.80;;;29.00;96.70;;;;;;5078043;28;20378;-69
2021/08/08 09:27:51;;;;;;;7.32;2.42;;;29.20;96.70;;;;;;5079041;28;20050;-69
2021/08/08 09:30:21;;;;;;;7.75;2.28;;;29.40;96.70;;;;;;5075403;28;20040;-69
2021/08/08 09:33:01;;;;;;;7.38;2.30;;;29.40;96.70;;;;;;5083529;28;20044;-69
2021/08/08 09:35:34;;;;;;;6.78;2.67;;;29.50;96.70;;;;;;5078582;28;20363;-69
2021/08/08 09:38:04;;;;;;;7.90;2.80;;;29.70;96.70;;;;;;5079648;28;20045;-69
2021/08/08 09:40:33;;;;;;;9.30;2.97;;;29.80;96.70;;;;;;5083256;28;20089;-69
2021/08/08 09:43:03;;;;;;;7.28;2.42;;;29.80;96.70;;;;;;5078019;28;20868;-69
2021/08/08 09:45:37;;;;;;;8.50;2.95;;;29.80;96.70;;;;;;5081091;28;20054;-69
2021/08/08 09:48:08;;;;;;;5.43;2.70;;;29.70;96.70;;;;;;5076661;28;20054;-69
2021/08/08 09:50:38;;;;;;;6.00;2.92;;;29.30;96.70;;;;;;5080499;28;20044;-70
2021/08/08 09:53:08;;;;;;;9.40;2.83;;;29.40;96.70;;;;;;5074357;28;20044;-69
2021/08/08 09:55:38;;;;;;;7.18;2.85;;;29.30;96.70;;;;;;5076745;28;20032;-68
2021/08/08 09:58:21;;;;;;;6.28;2.63;;;29.50;96.70;;;;;;5075393;28;20028;-69
2021/08/08 10:00:56;;;;;;;7.47;2.80;;;29.70;96.70;;;;;;5080357;28;20036;-69
2021/08/08 10:03:25;;;;;;;7.55;2.20;;;29.70;96.70;;;;;;5079742;28;20314;-69
2021/08/08 10:05:56;;;;;;;4.93;2.13;;;29.80;96.70;;;;;;5082732;28;20770;-69
2021/08/08 10:08:25;;;;;;;4.78;1.83;;;29.80;96.70;;;;;;5078121;28;20090;-69
2021/08/08 10:10:54;;;;;;;3.65;2.20;;;29.90;95.90;;;;;;5079400;28;20052;-69
2021/08/08 10:13:36;;;;;;;4.18;1.77;;;30.00;95.80;;;;;;5082429;28;20564;-69
2021/08/08 10:16:09;;;;;;;6.25;1.92;;;30.20;95.60;;;;;;5079787;28;20058;-69
2021/08/08 10:18:40;;;;;;;5.93;1.95;;;30.30;93.90;;;;;;5100124;27;20060;-69
2021/08/08 10:21:11;;;;;;;5.50;1.73;;;30.30;93.10;;;;;;5078424;28;20048;-69
2021/08/08 10:23:39;;;;;;;4.07;1.70;;;30.40;92.60;;;;;;5081405;28;20089;-69
2021/08/08 10:26:08;;;;;;;2.00;1.42;;;30.40;91.50;;;;;;5079333;28;20048;-70
2021/08/08 10:28:37;;;;;;;3.58;1.55;;;30.40;90.30;;;;;;5062266;28;20043;-69
2021/08/08 10:31:06;;;;;;;3.25;1.88;;;30.50;90.40;;;;;;5078053;28;20051;-68
2021/08/08 10:33:46;;;;;;;4.25;1.98;;;30.50;90.30;;;;;;5080292;28;20042;-69
2021/08/08 10:36:20;;;;;;;1.85;1.20;;;30.70;90.20;;;;;;5082669;28;20039;-69
2021/08/08 10:38:49;;;;;;;4.88;1.63;;;30.50;87.10;;;;;;5078746;28;20044;-69
2021/08/08 10:41:18;;;;;;;4.75;1.52;;;30.50;88.40;;;;;;5081142;28;20043;-70
2021/08/08 10:43:46;;;;;;;1.90;1.33;;;30.50;88.60;;;;;;5071309;28;20101;-69
2021/08/08 10:46:16;;;;;;;2.15;1.13;;;30.50;88.60;;;;;;5076688;28;20448;-69
2021/08/08 10:48:45;;;;;;;3.78;1.40;;;30.60;89.00;;;;;;5081369;28;20051;-70
2021/08/08 10:51:24;;;;;;;3.75;1.33;;;30.60;88.70;;;;;;5079155;28;20478;-69
2021/08/08 10:54:03;;;;;;;3.33;1.50;;;30.50;89.20;;;;;;5079083;28;20453;-70
2021/08/08 10:56:45;;;;;;;2.88;1.50;;;30.60;89.30;;;;;;5079909;28;20493;-69
2021/08/08 10:59:19;;;;;;;2.72;1.25;;;30.90;88.60;;;;;;5079183;28;20036;-69
2021/08/08 11:02:04;;;;;;;3.28;1.35;;;30.80;88.80;;;;;;5079760;28;20521;-69
2021/08/08 11:04:32;;;;;;;3.85;1.30;;;30.60;89.50;;;;;;5077515;28;20050;-70
2021/08/08 11:07:03;;;;;;;3.70;1.58;;;30.40;90.50;;;;;;5074373;28;20394;-70
2021/08/08 11:09:31;;;;;;;2.35;1.20;;;30.40;90.90;;;;;;5083439;28;20036;-69
2021/08/08 11:12:00;;;;;;;2.75;1.40;;;30.40;90.70;;;;;;5077235;28;20071;-69
2021/08/08 11:14:28;;;;;;;3.60;1.60;;;30.40;90.20;;;;;;5076565;28;20448;-69
2021/08/08 11:17:02;;;;;;;1.95;1.00;;;30.60;89.60;;;;;;5078605;28;20099;-70
2021/08/08 11:19:34;;;;;;;3.90;1.52;;;30.60;89.00;;;;;;5077397;28;20094;-69
2021/08/08 11:22:09;;;;;;;2.55;1.42;;;30.60;89.20;;;;;;5077805;28;20040;-69
2021/08/08 11:24:39;;;;;;;4.07;1.20;;;30.70;89.10;;;;;;5082564;28;20445;-69
2021/08/08 11:27:08;;;;;;;2.15;1.33;;;30.80;87.80;;;;;;5077881;28;20059;-70
2021/08/08 11:29:37;;;;;;;2.83;1.20;;;30.80;88.10;;;;;;5062141;28;20040;-69
2021/08/08 11:32:07;;;;;;;4.75;1.50;;;30.90;87.90;;;;;;5081920;28;20135;-69
2021/08/08 11:34:36;;;;;;;3.55;1.33;;;30.90;87.20;;;;;;5077747;28;20051;-69
2021/08/08 11:37:04;;;;;;;4.05;1.50;;;30.70;87.90;;;;;;5077691;28;20040;-69
2021/08/08 11:39:36;;;;;;;2.53;1.10;;;30.90;88.10;;;;;;5076944;28;20043;-69
2021/08/08 11:42:06;;;;;;;4.43;1.20;;;30.80;88.00;;;;;;5080839;28;20067;-69
2021/08/08 11:44:39;;;;;;;1.85;1.13;;;30.70;88.70;;;;;;5077962;28;20055;-69
2021/08/08 11:47:08;;;;;;;3.85;1.20;;;30.80;88.40;;;;;;5078116;28;20048;-69
2021/08/08 11:49:44;;;;;;;3.95;1.30;;;31.00;88.20;;;;;;5078601;28;20044;-69
2021/08/08 11:52:15;;;;;;;2.17;1.00;;;31.10;87.50;;;;;;5082298;28;20066;-69
2021/08/08 11:54:46;;;;;;;3.85;1.40;;;31.30;87.70;;;;;;5081652;28;20039;-70
2021/08/08 11:57:25;;;;;;;3.63;1.17;;;31.20;87.30;;;;;;5078982;28;20044;-70
2021/08/08 11:59:54;;;;;;;3.05;1.30;;;31.30;87.40;;;;;;5080588;28;20043;-70
2021/08/08 12:02:24;;;;;;;2.63;1.02;;;31.40;86.70;;;;;;5084072;28;20055;-69
2021/08/08 12:04:54;;;;;;;2.22;1.10;;;31.50;86.40;;;;;;5084321;28;20516;-70
2021/08/08 12:07:23;;;;;;;4.70;1.60;;;31.30;86.50;;;;;;5081729;28;20780;-70
2021/08/08 12:09:55;;;;;;;3.97;1.25;;;31.30;85.80;;;;;;5083814;28;20031;-69
2021/08/08 12:12:33;;;;;;;3.97;1.52;;;31.40;86.30;;;;;;5082063;28;20566;-69
2021/08/08 12:15:04;;;;;;;2.72;1.33;;;31.50;86.50;;;;;;5082981;28;20663;-69
2021/08/08 12:17:32;;;;;;;3.33;1.15;;;31.70;85.40;;;;;;5081353;28;20588;-69
2021/08/08 12:20:09;;;;;;;5.78;1.60;;;31.70;85.40;;;;;;5082124;28;20539;-69
2021/08/08 12:22:37;;;;;;;3.90;1.02;;;31.60;85.20;;;;;;5082226;28;20871;-69
2021/08/08 12:25:09;;;;;;;2.85;0.90;;;31.60;84.90;;;;;;5087246;28;20040;-69
2021/08/08 12:27:39;;;;;;;2.55;0.90;;;31.70;84.40;;;;;;5079593;28;20288;-70
2021/08/08 12:30:11;;;;;;;2.63;0.93;;;31.70;83.50;;;;;;5082310;28;20044;-69
2021/08/08 12:32:41;;;;;;;4.18;1.25;;;31.60;83.70;;;;;;5078114;28;20089;-70
2021/08/08 12:35:11;;;;;;;2.15;1.05;;;31.50;84.30;;;;;;5079443;28;20566;-69
2021/08/08 12:37:41;;;;;;;1.83;1.00;;;31.40;84.20;;;;;;5087209;28;20051;-69
2021/08/08 12:40:12;;;;;;;2.63;1.10;;;31.60;83.80;;;;;;5082284;28;20332;-71
2021/08/08 12:42:42;;;;;;;2.92;1.10;;;31.60;84.00;;;;;;5077410;28;20032;-72
2021/08/08 12:45:15;;;;;;;3.70;1.13;;;31.50;83.50;;;;;;5080915;28;20040;-72
2021/08/08 12:47:45;;;;;;;1.92;1.00;;;31.50;83.80;;;;;;5083554;28;20452;-71
2021/08/08 12:50:16;;;;;;;2.85;1.00;;;31.70;83.40;;;;;;5084017;28;20040;-72
2021/08/08 12:52:45;;;;;;;2.83;1.02;;;31.50;82.90;;;;;;5084323;28;20367;-72
2021/08/08 12:55:16;;;;;;;3.25;1.20;;;31.60;83.10;;;;;;5071704;28;20032;-73
2021/08/08 12:57:45;;;;;;;2.38;1.13;;;31.80;83.00;;;;;;5086974;28;20040;-72
2021/08/08 13:00:16;;;;;;;3.15;1.10;;;31.80;82.40;;;;;;5079832;28;20090;-71
2021/08/08 13:02:49;;;;;;;2.88;1.27;;;31.70;81.70;;;;;;5083601;28;20044;-70
2021/08/08 13:05:19;;;;;;;4.57;1.10;;;31.50;81.90;;;;;;5073379;28;20036;-69
2021/08/08 13:07:48;;;;;;;2.22;0.90;;;31.50;81.60;;;;;;5082789;28;20073;-71
2021/08/08 13:10:18;;;;;;;2.90;0.85;;;31.60;81.70;;;;;;5078256;28;20401;-72
2021/08/08 13:12:48;;;;;;;2.15;0.82;;;31.70;81.00;;;;;;5079179;28;20075;-73